sensor_id;sensor_type;location;lat;lon;timestamp;temperature;humidity
51619;DHT22;38518;53.164;5.430;2023-04-24T00:00:16;10.30;99.90
51619;DHT22;38518;53.164;5.430;2023-04-24T00:02:44;10.30;99.90
51619;DHT22;38518;53.164;5.430;2023-04-24T00:05:14;10.20;99.90
51619;DHT22;38518;53.164;5.430;2023-04-24T00:07:41;10.20;99.90
51619;DHT22;38518;53.164;5.430;2023-04-24T00:10:07;10.20;99.90
51619;DHT22;38518;53.164;5.430;2023-04-24T00:12:33;10.20;99.90
51619;DHT22;38518;53.164;5.430;2023-04-24T00:14:59;10.20;99.90
51619;DHT22;38518;53.164;5.430;2023-04-24T00:17:25;10.20;99.90
51619;DHT22;38518;53.164;5.430;2023-04-24T00:19:51;10.20;99.90
51619;DHT22;38518;53.164;5.430;2023-04-24T00:22:17;10.20;99.90
51619;DHT22;38518;53.164;5.430;2023-04-24T00:24:43;10.20;99.90
51619;DHT22;38518;53.164;5.430;2023-04-24T00:27:09;9.40;99.90
51619;DHT22;38518;53.164;5.430;2023-04-24T00:29:35;10.20;99.90
51619;DHT22;38518;53.164;5.430;2023-04-24T00:32:01;10.20;99.90
51619;DHT22;38518;53.164;5.430;2023-04-24T00:34:26;10.20;99.90
51619;DHT22;38518;53.164;5.430;2023-04-24T00:36:52;10.20;99.90
51619;DHT22;38518;53.164;5.430;2023-04-24T00:39:19;10.30;99.90
51619;DHT22;38518;53.164;5.430;2023-04-24T00:41:45;10.30;99.90
51619;DHT22;38518;53.164;5.430;2023-04-24T00:44:11;9.80;99.90
51619;DHT22;38518;53.164;5.430;2023-04-24T00:46:38;10.20;99.90
51619;DHT22;38518;53.164;5.430;2023-04-24T00:49:04;10.30;99.90
51619;DHT22;38518;53.164;5.430;2023-04-24T00:51:31;10.30;99.90
51619;DHT22;38518;53.164;5.430;2023-04-24T00:53:58;10.20;99.90
51619;DHT22;38518;53.164;5.430;2023-04-24T00:56:25;9.10;99.90
51619;DHT22;38518;53.164;5.430;2023-04-24T00:58:50;10.20;99.90
51619;DHT22;38518;53.164;5.430;2023-04-24T01:01:18;10.20;99.90
51619;DHT22;38518;53.164;5.430;2023-04-24T01:03:46;10.20;99.90
51619;DHT22;38518;53.164;5.430;2023-04-24T01:06:13;10.20;99.90
51619;DHT22;38518;53.164;5.430;2023-04-24T01:08:39;10.20;99.90
51619;DHT22;38518;53.164;5.430;2023-04-24T01:11:06;10.20;99.90
51619;DHT22;38518;53.164;5.430;2023-04-24T01:13:33;10.30;99.90
51619;DHT22;38518;53.164;5.430;2023-04-24T01:16:00;10.10;99.90
51619;DHT22;38518;53.164;5.430;2023-04-24T01:18:27;10.10;99.90
51619;DHT22;38518;53.164;5.430;2023-04-24T01:20:56;10.10;99.90
51619;DHT22;38518;53.164;5.430;2023-04-24T01:23:22;10.10;99.90
51619;DHT22;38518;53.164;5.430;2023-04-24T01:25:49;10.10;99.90
51619;DHT22;38518;53.164;5.430;2023-04-24T01:28:16;10.10;99.90
51619;DHT22;38518;53.164;5.430;2023-04-24T01:30:43;10.10;99.90
51619;DHT22;38518;53.164;5.430;2023-04-24T01:33:09;10.10;99.90
51619;DHT22;38518;53.164;5.430;2023-04-24T01:35:36;10.10;99.90
51619;DHT22;38518;53.164;5.430;2023-04-24T01:38:03;10.10;99.90
51619;DHT22;38518;53.164;5.430;2023-04-24T01:40:29;10.10;99.90
51619;DHT22;38518;53.164;5.430;2023-04-24T01:42:55;10.10;99.90
51619;DHT22;38518;53.164;5.430;2023-04-24T01:45:21;9.40;99.90
51619;DHT22;38518;53.164;5.430;2023-04-24T01:47:47;10.10;99.90
51619;DHT22;38518;53.164;5.430;2023-04-24T01:50:13;10.10;99.90
51619;DHT22;38518;53.164;5.430;2023-04-24T01:52:39;9.80;99.90
51619;DHT22;38518;53.164;5.430;2023-04-24T01:55:05;10.10;99.90
51619;DHT22;38518;53.164;5.430;2023-04-24T01:57:33;10.10;99.90
51619;DHT22;38518;53.164;5.430;2023-04-24T01:59:58;10.10;99.90
51619;DHT22;38518;53.164;5.430;2023-04-24T02:02:25;10.10;99.90
51619;DHT22;38518;53.164;5.430;2023-04-24T02:04:53;10.10;99.90
51619;DHT22;38518;53.164;5.430;2023-04-24T02:07:19;10.10;99.90
51619;DHT22;38518;53.164;5.430;2023-04-24T02:09:46;10.10;99.90
51619;DHT22;38518;53.164;5.430;2023-04-24T02:12:11;10.10;99.90
51619;DHT22;38518;53.164;5.430;2023-04-24T02:14:37;10.00;99.90
51619;DHT22;38518;53.164;5.430;2023-04-24T02:17:03;10.00;99.90
51619;DHT22;38518;53.164;5.430;2023-04-24T02:19:30;10.00;99.90
51619;DHT22;38518;53.164;5.430;2023-04-24T02:21:56;10.00;99.90
51619;DHT22;38518;53.164;5.430;2023-04-24T02:24:22;9.90;99.90
51619;DHT22;38518;53.164;5.430;2023-04-24T02:26:48;9.90;99.90
51619;DHT22;38518;53.164;5.430;2023-04-24T02:29:14;10.00;99.90
51619;DHT22;38518;53.164;5.430;2023-04-24T02:31:40;9.90;99.90
51619;DHT22;38518;53.164;5.430;2023-04-24T02:34:06;9.90;99.90
51619;DHT22;38518;53.164;5.430;2023-04-24T02:36:31;9.90;99.90
51619;DHT22;38518;53.164;5.430;2023-04-24T02:38:57;9.90;99.90
51619;DHT22;38518;53.164;5.430;2023-04-24T02:41:23;10.00;99.90
51619;DHT22;38518;53.164;5.430;2023-04-24T02:43:49;9.90;99.90
51619;DHT22;38518;53.164;5.430;2023-04-24T02:46:15;9.90;99.90
51619;DHT22;38518;53.164;5.430;2023-04-24T02:48:41;9.80;99.90
51619;DHT22;38518;53.164;5.430;2023-04-24T02:51:06;9.80;99.90
51619;DHT22;38518;53.164;5.430;2023-04-24T02:53:32;9.90;99.90
51619;DHT22;38518;53.164;5.430;2023-04-24T02:55:58;9.80;99.90
51619;DHT22;38518;53.164;5.430;2023-04-24T02:58:24;9.80;99.90
51619;DHT22;38518;53.164;5.430;2023-04-24T03:00:54;9.80;99.90
51619;DHT22;38518;53.164;5.430;2023-04-24T03:03:21;9.80;99.90
51619;DHT22;38518;53.164;5.430;2023-04-24T03:05:47;9.80;99.90
51619;DHT22;38518;53.164;5.430;2023-04-24T03:08:12;9.70;99.90
51619;DHT22;38518;53.164;5.430;2023-04-24T03:10:40;9.70;99.90
51619;DHT22;38518;53.164;5.430;2023-04-24T03:13:05;9.70;99.90
51619;DHT22;38518;53.164;5.430;2023-04-24T03:15:31;9.70;99.90
51619;DHT22;38518;53.164;5.430;2023-04-24T03:17:57;9.70;99.90
51619;DHT22;38518;53.164;5.430;2023-04-24T03:20:23;9.60;99.90
51619;DHT22;38518;53.164;5.430;2023-04-24T03:22:49;9.60;99.90
51619;DHT22;38518;53.164;5.430;2023-04-24T03:25:15;9.60;99.90
51619;DHT22;38518;53.164;5.430;2023-04-24T03:27:40;9.60;99.90
51619;DHT22;38518;53.164;5.430;2023-04-24T03:30:07;9.60;99.90
51619;DHT22;38518;53.164;5.430;2023-04-24T03:32:33;9.60;99.90
51619;DHT22;38518;53.164;5.430;2023-04-24T03:34:59;9.60;99.90
51619;DHT22;38518;53.164;5.430;2023-04-24T03:37:25;9.60;99.90
51619;DHT22;38518;53.164;5.430;2023-04-24T03:39:52;9.50;99.90
51619;DHT22;38518;53.164;5.430;2023-04-24T03:42:17;9.50;99.90
51619;DHT22;38518;53.164;5.430;2023-04-24T03:44:43;9.50;99.90
51619;DHT22;38518;53.164;5.430;2023-04-24T03:47:09;9.50;99.90
51619;DHT22;38518;53.164;5.430;2023-04-24T03:49:35;9.50;99.90
51619;DHT22;38518;53.164;5.430;2023-04-24T03:52:01;9.50;99.90
51619;DHT22;38518;53.164;5.430;2023-04-24T03:54:27;9.50;99.90
51619;DHT22;38518;53.164;5.430;2023-04-24T03:56:53;9.50;99.90
51619;DHT22;38518;53.164;5.430;2023-04-24T03:59:19;9.50;99.90
51619;DHT22;38518;53.164;5.430;2023-04-24T04:01:44;9.50;99.90
51619;DHT22;38518;53.164;5.430;2023-04-24T04:04:11;9.40;99.90
51619;DHT22;38518;53.164;5.430;2023-04-24T04:06:37;9.40;99.30
51619;DHT22;38518;53.164;5.430;2023-04-24T04:09:02;9.40;99.50
51619;DHT22;38518;53.164;5.430;2023-04-24T04:11:29;9.40;92.40
51619;DHT22;38518;53.164;5.430;2023-04-24T04:13:55;9.30;79.40
51619;DHT22;38518;53.164;5.430;2023-04-24T04:16:20;9.30;78.50
51619;DHT22;38518;53.164;5.430;2023-04-24T04:18:46;9.30;77.70
51619;DHT22;38518;53.164;5.430;2023-04-24T04:21:12;9.20;54.00
51619;DHT22;38518;53.164;5.430;2023-04-24T04:23:38;9.20;48.30
51619;DHT22;38518;53.164;5.430;2023-04-24T04:26:05;9.20;42.40
51619;DHT22;38518;53.164;5.430;2023-04-24T04:28:31;9.20;40.30
51619;DHT22;38518;53.164;5.430;2023-04-24T04:30:57;9.20;37.70
51619;DHT22;38518;53.164;5.430;2023-04-24T04:33:24;9.20;37.20
51619;DHT22;38518;53.164;5.430;2023-04-24T04:35:50;9.20;35.30
51619;DHT22;38518;53.164;5.430;2023-04-24T04:38:18;9.20;29.10
51619;DHT22;38518;53.164;5.430;2023-04-24T04:40:44;9.10;18.90
51619;DHT22;38518;53.164;5.430;2023-04-24T04:43:11;9.10;18.10
51619;DHT22;38518;53.164;5.430;2023-04-24T04:45:39;9.10;10.40
51619;DHT22;38518;53.164;5.430;2023-04-24T04:48:07;9.10;3.20
51619;DHT22;38518;53.164;5.430;2023-04-24T04:50:38;9.00;4.80
51619;DHT22;38518;53.164;5.430;2023-04-24T04:53:04;9.10;17.10
51619;DHT22;38518;53.164;5.430;2023-04-24T04:55:30;9.10;7.70
51619;DHT22;38518;53.164;5.430;2023-04-24T04:57:56;9.60;5.60
51619;DHT22;38518;53.164;5.430;2023-04-24T05:00:22;9.00;1.00
51619;DHT22;38518;53.164;5.430;2023-04-24T05:02:51;9.10;6.60
51619;DHT22;38518;53.164;5.430;2023-04-24T05:05:17;9.10;10.80
51619;DHT22;38518;53.164;5.430;2023-04-24T05:07:43;9.10;16.40
51619;DHT22;38518;53.164;5.430;2023-04-24T05:10:09;9.10;24.50
51619;DHT22;38518;53.164;5.430;2023-04-24T05:12:36;9.20;35.90
51619;DHT22;38518;53.164;5.430;2023-04-24T05:15:02;9.20;44.00
51619;DHT22;38518;53.164;5.430;2023-04-24T05:17:28;9.30;54.50
51619;DHT22;38518;53.164;5.430;2023-04-24T05:19:54;9.20;44.60
51619;DHT22;38518;53.164;5.430;2023-04-24T05:22:20;9.30;42.10
51619;DHT22;38518;53.164;5.430;2023-04-24T05:24:47;9.30;36.80
51619;DHT22;38518;53.164;5.430;2023-04-24T05:27:13;9.30;26.30
51619;DHT22;38518;53.164;5.430;2023-04-24T05:29:39;9.60;26.00
51619;DHT22;38518;53.164;5.430;2023-04-24T05:32:05;9.30;16.90
51619;DHT22;38518;53.164;5.430;2023-04-24T05:34:32;9.30;13.90
51619;DHT22;38518;53.164;5.430;2023-04-24T05:36:58;9.30;10.20
51619;DHT22;38518;53.164;5.430;2023-04-24T05:39:23;9.20;1.00
51619;DHT22;38518;53.164;5.430;2023-04-24T05:41:51;9.30;1.00
51619;DHT22;38518;53.164;5.430;2023-04-24T05:44:17;9.20;1.00
51619;DHT22;38518;53.164;5.430;2023-04-24T05:46:42;9.20;1.00
51619;DHT22;38518;53.164;5.430;2023-04-24T05:49:08;9.20;1.00
51619;DHT22;38518;53.164;5.430;2023-04-24T05:51:34;9.20;1.00
51619;DHT22;38518;53.164;5.430;2023-04-24T05:54:00;9.20;1.00
51619;DHT22;38518;53.164;5.430;2023-04-24T05:56:28;9.20;1.00
51619;DHT22;38518;53.164;5.430;2023-04-24T05:58:54;9.20;1.00
51619;DHT22;38518;53.164;5.430;2023-04-24T06:01:20;9.20;1.00
51619;DHT22;38518;53.164;5.430;2023-04-24T06:03:46;9.20;1.00
51619;DHT22;38518;53.164;5.430;2023-04-24T06:06:12;9.20;1.00
51619;DHT22;38518;53.164;5.430;2023-04-24T06:08:40;9.20;1.00
51619;DHT22;38518;53.164;5.430;2023-04-24T06:11:07;9.20;1.00
51619;DHT22;38518;53.164;5.430;2023-04-24T06:13:33;9.10;1.00
51619;DHT22;38518;53.164;5.430;2023-04-24T06:15:59;9.10;1.00
51619;DHT22;38518;53.164;5.430;2023-04-24T06:18:26;9.00;1.00
51619;DHT22;38518;53.164;5.430;2023-04-24T06:20:53;9.00;1.00
51619;DHT22;38518;53.164;5.430;2023-04-24T06:23:20;9.00;99.90
51619;DHT22;38518;53.164;5.430;2023-04-24T06:25:46;8.90;99.90
51619;DHT22;38518;53.164;5.430;2023-04-24T06:28:12;8.90;99.90
51619;DHT22;38518;53.164;5.430;2023-04-24T06:30:38;9.20;99.90
51619;DHT22;38518;53.164;5.430;2023-04-24T06:33:03;8.80;99.90
51619;DHT22;38518;53.164;5.430;2023-04-24T06:35:29;8.80;99.90
51619;DHT22;38518;53.164;5.430;2023-04-24T06:37:55;9.10;99.90
51619;DHT22;38518;53.164;5.430;2023-04-24T06:40:22;8.80;99.90
51619;DHT22;38518;53.164;5.430;2023-04-24T06:42:47;8.80;99.90
51619;DHT22;38518;53.164;5.430;2023-04-24T06:45:13;8.80;99.90
51619;DHT22;38518;53.164;5.430;2023-04-24T06:47:39;8.70;99.90
51619;DHT22;38518;53.164;5.430;2023-04-24T06:50:05;8.70;99.90
51619;DHT22;38518;53.164;5.430;2023-04-24T06:52:31;8.60;99.90
51619;DHT22;38518;53.164;5.430;2023-04-24T06:55:03;8.60;99.90
51619;DHT22;38518;53.164;5.430;2023-04-24T06:57:30;8.60;99.90
51619;DHT22;38518;53.164;5.430;2023-04-24T06:59:55;8.60;99.90
51619;DHT22;38518;53.164;5.430;2023-04-24T07:02:22;8.70;99.90
51619;DHT22;38518;53.164;5.430;2023-04-24T07:04:47;8.70;99.90
51619;DHT22;38518;53.164;5.430;2023-04-24T07:07:14;8.70;99.90
51619;DHT22;38518;53.164;5.430;2023-04-24T07:09:40;8.70;99.90
51619;DHT22;38518;53.164;5.430;2023-04-24T07:12:09;8.00;99.90
51619;DHT22;38518;53.164;5.430;2023-04-24T07:14:39;8.80;99.90
51619;DHT22;38518;53.164;5.430;2023-04-24T07:17:05;8.80;99.90
51619;DHT22;38518;53.164;5.430;2023-04-24T07:19:33;8.90;99.90
51619;DHT22;38518;53.164;5.430;2023-04-24T07:22:01;9.00;99.90
51619;DHT22;38518;53.164;5.430;2023-04-24T07:24:26;9.00;99.90
51619;DHT22;38518;53.164;5.430;2023-04-24T07:26:53;9.10;99.90
51619;DHT22;38518;53.164;5.430;2023-04-24T07:29:19;9.20;99.90
51619;DHT22;38518;53.164;5.430;2023-04-24T07:31:52;9.20;99.90
51619;DHT22;38518;53.164;5.430;2023-04-24T07:34:19;9.30;99.90
51619;DHT22;38518;53.164;5.430;2023-04-24T07:36:46;9.10;99.90
51619;DHT22;38518;53.164;5.430;2023-04-24T07:39:11;9.30;99.90
51619;DHT22;38518;53.164;5.430;2023-04-24T07:41:37;9.30;99.90
51619;DHT22;38518;53.164;5.430;2023-04-24T07:44:03;9.30;99.90
51619;DHT22;38518;53.164;5.430;2023-04-24T07:46:30;9.40;99.90
51619;DHT22;38518;53.164;5.430;2023-04-24T07:48:56;9.50;99.90
51619;DHT22;38518;53.164;5.430;2023-04-24T07:51:22;9.60;99.90
51619;DHT22;38518;53.164;5.430;2023-04-24T07:53:47;9.70;99.90
51619;DHT22;38518;53.164;5.430;2023-04-24T07:56:13;9.70;99.90
51619;DHT22;38518;53.164;5.430;2023-04-24T07:58:39;9.80;99.90
51619;DHT22;38518;53.164;5.430;2023-04-24T08:01:05;9.90;99.90
51619;DHT22;38518;53.164;5.430;2023-04-24T08:03:31;10.00;99.90
51619;DHT22;38518;53.164;5.430;2023-04-24T08:05:57;9.70;99.90
51619;DHT22;38518;53.164;5.430;2023-04-24T08:08:22;10.10;99.90
51619;DHT22;38518;53.164;5.430;2023-04-24T08:10:49;10.00;99.90
51619;DHT22;38518;53.164;5.430;2023-04-24T08:13:15;10.00;99.90
51619;DHT22;38518;53.164;5.430;2023-04-24T08:15:41;10.00;99.90
51619;DHT22;38518;53.164;5.430;2023-04-24T08:18:07;9.80;93.60
51619;DHT22;38518;53.164;5.430;2023-04-24T08:20:33;9.80;98.10
51619;DHT22;38518;53.164;5.430;2023-04-24T08:22:58;9.90;99.90
51619;DHT22;38518;53.164;5.430;2023-04-24T08:25:24;9.90;99.80
51619;DHT22;38518;53.164;5.430;2023-04-24T08:27:51;10.00;99.90
51619;DHT22;38518;53.164;5.430;2023-04-24T08:30:17;10.00;94.40
51619;DHT22;38518;53.164;5.430;2023-04-24T08:32:43;9.90;92.00
51619;DHT22;38518;53.164;5.430;2023-04-24T08:35:09;9.80;95.90
51619;DHT22;38518;53.164;5.430;2023-04-24T08:37:35;9.80;99.90
51619;DHT22;38518;53.164;5.430;2023-04-24T08:40:15;9.80;99.90
51619;DHT22;38518;53.164;5.430;2023-04-24T08:42:44;9.90;95.90
51619;DHT22;38518;53.164;5.430;2023-04-24T08:45:12;9.90;71.60
51619;DHT22;38518;53.164;5.430;2023-04-24T08:47:41;9.80;62.00
51619;DHT22;38518;53.164;5.430;2023-04-24T08:50:08;9.70;78.10
51619;DHT22;38518;53.164;5.430;2023-04-24T08:52:35;9.70;93.80
51619;DHT22;38518;53.164;5.430;2023-04-24T08:55:06;9.60;81.90
51619;DHT22;38518;53.164;5.430;2023-04-24T08:57:33;9.60;86.40
51619;DHT22;38518;53.164;5.430;2023-04-24T08:59:59;9.50;88.30
51619;DHT22;38518;53.164;5.430;2023-04-24T09:02:26;9.50;75.10
51619;DHT22;38518;53.164;5.430;2023-04-24T09:04:52;9.50;88.60
51619;DHT22;38518;53.164;5.430;2023-04-24T09:07:19;9.00;96.90
51619;DHT22;38518;53.164;5.430;2023-04-24T09:09:48;9.70;99.90
51619;DHT22;38518;53.164;5.430;2023-04-24T09:12:16;9.80;99.90
51619;DHT22;38518;53.164;5.430;2023-04-24T09:14:42;9.90;99.90
51619;DHT22;38518;53.164;5.430;2023-04-24T09:17:11;9.90;84.50
51619;DHT22;38518;53.164;5.430;2023-04-24T09:19:37;9.90;61.30
51619;DHT22;38518;53.164;5.430;2023-04-24T09:22:07;9.00;77.20
51619;DHT22;38518;53.164;5.430;2023-04-24T09:24:34;9.40;98.90
51619;DHT22;38518;53.164;5.430;2023-04-24T09:27:06;9.80;89.70
51619;DHT22;38518;53.164;5.430;2023-04-24T09:29:32;9.40;90.30
51619;DHT22;38518;53.164;5.430;2023-04-24T09:31:59;9.80;90.20
51619;DHT22;38518;53.164;5.430;2023-04-24T09:34:27;9.90;93.20
51619;DHT22;38518;53.164;5.430;2023-04-24T09:36:54;10.10;99.10
51619;DHT22;38518;53.164;5.430;2023-04-24T09:39:20;10.20;99.90
51619;DHT22;38518;53.164;5.430;2023-04-24T09:41:54;10.30;95.80
51619;DHT22;38518;53.164;5.430;2023-04-24T09:44:23;10.30;53.00
51619;DHT22;38518;53.164;5.430;2023-04-24T09:46:59;10.40;55.40
51619;DHT22;38518;53.164;5.430;2023-04-24T09:49:26;10.50;73.10
51619;DHT22;38518;53.164;5.430;2023-04-24T09:52:09;10.50;91.90
51619;DHT22;38518;53.164;5.430;2023-04-24T09:54:35;10.50;60.20
51619;DHT22;38518;53.164;5.430;2023-04-24T09:57:04;10.60;90.70
51619;DHT22;38518;53.164;5.430;2023-04-24T09:59:32;10.60;66.40
51619;DHT22;38518;53.164;5.430;2023-04-24T10:01:59;10.60;78.20
51619;DHT22;38518;53.164;5.430;2023-04-24T10:04:26;10.70;80.10
51619;DHT22;38518;53.164;5.430;2023-04-24T10:06:55;10.80;74.20
51619;DHT22;38518;53.164;5.430;2023-04-24T10:09:25;10.90;83.20
51619;DHT22;38518;53.164;5.430;2023-04-24T10:11:53;10.90;91.70
51619;DHT22;38518;53.164;5.430;2023-04-24T10:14:21;10.80;91.20
51619;DHT22;38518;53.164;5.430;2023-04-24T10:16:48;10.80;87.80
51619;DHT22;38518;53.164;5.430;2023-04-24T10:19:15;10.50;65.20
51619;DHT22;38518;53.164;5.430;2023-04-24T10:21:44;10.50;83.30
51619;DHT22;38518;53.164;5.430;2023-04-24T10:24:14;9.50;84.50
51619;DHT22;38518;53.164;5.430;2023-04-24T10:26:41;10.10;82.90
51619;DHT22;38518;53.164;5.430;2023-04-24T10:29:07;10.10;90.10
51619;DHT22;38518;53.164;5.430;2023-04-24T10:31:38;10.20;93.20
51619;DHT22;38518;53.164;5.430;2023-04-24T10:34:09;10.10;76.70
51619;DHT22;38518;53.164;5.430;2023-04-24T10:36:56;10.20;70.40
51619;DHT22;38518;53.164;5.430;2023-04-24T10:39:22;10.30;83.70
51619;DHT22;38518;53.164;5.430;2023-04-24T10:41:53;10.40;90.40
51619;DHT22;38518;53.164;5.430;2023-04-24T10:44:47;10.50;85.40
51619;DHT22;38518;53.164;5.430;2023-04-24T10:47:24;9.90;81.60
51619;DHT22;38518;53.164;5.430;2023-04-24T10:50:13;10.90;72.10
51619;DHT22;38518;53.164;5.430;2023-04-24T11:00:28;11.70;31.70
51619;DHT22;38518;53.164;5.430;2023-04-24T11:07:32;12.40;18.80
51619;DHT22;38518;53.164;5.430;2023-04-24T11:11:21;12.90;20.50
51619;DHT22;38518;53.164;5.430;2023-04-24T11:17:49;13.10;1.00
51619;DHT22;38518;53.164;5.430;2023-04-24T11:26:29;13.10;1.00
51619;DHT22;38518;53.164;5.430;2023-04-24T11:37:41;12.90;1.00
51619;DHT22;38518;53.164;5.430;2023-04-24T11:40:09;13.10;1.00
51619;DHT22;38518;53.164;5.430;2023-04-24T11:42:45;13.30;1.00
51619;DHT22;38518;53.164;5.430;2023-04-24T11:45:31;13.50;1.00
51619;DHT22;38518;53.164;5.430;2023-04-24T11:48:00;12.80;1.00
51619;DHT22;38518;53.164;5.430;2023-04-24T11:50:45;13.60;1.00
51619;DHT22;38518;53.164;5.430;2023-04-24T11:53:14;13.70;1.00
51619;DHT22;38518;53.164;5.430;2023-04-24T11:55:40;13.80;1.00
51619;DHT22;38518;53.164;5.430;2023-04-24T11:58:06;14.00;1.00
51619;DHT22;38518;53.164;5.430;2023-04-24T12:00:41;14.20;1.00
51619;DHT22;38518;53.164;5.430;2023-04-24T12:03:11;14.00;1.00
51619;DHT22;38518;53.164;5.430;2023-04-24T12:05:38;13.60;1.00
51619;DHT22;38518;53.164;5.430;2023-04-24T12:08:04;13.20;1.00
51619;DHT22;38518;53.164;5.430;2023-04-24T12:10:34;13.00;1.00
51619;DHT22;38518;53.164;5.430;2023-04-24T12:17:08;12.90;1.00
51619;DHT22;38518;53.164;5.430;2023-04-24T12:19:34;13.10;1.00
51619;DHT22;38518;53.164;5.430;2023-04-24T12:22:06;13.70;1.00
51619;DHT22;38518;53.164;5.430;2023-04-24T12:24:32;14.20;1.00
51619;DHT22;38518;53.164;5.430;2023-04-24T12:26:58;14.50;1.00
51619;DHT22;38518;53.164;5.430;2023-04-24T12:29:35;14.50;1.00
51619;DHT22;38518;53.164;5.430;2023-04-24T12:32:00;14.50;1.00
51619;DHT22;38518;53.164;5.430;2023-04-24T12:34:32;14.40;1.00
51619;DHT22;38518;53.164;5.430;2023-04-24T12:37:19;14.20;1.00
51619;DHT22;38518;53.164;5.430;2023-04-24T12:40:43;13.90;1.00
51619;DHT22;38518;53.164;5.430;2023-04-24T12:43:19;13.60;1.00
51619;DHT22;38518;53.164;5.430;2023-04-24T12:45:45;13.50;1.00
51619;DHT22;38518;53.164;5.430;2023-04-24T12:48:11;13.00;1.00
51619;DHT22;38518;53.164;5.430;2023-04-24T12:54:40;12.80;1.00
51619;DHT22;38518;53.164;5.430;2023-04-24T12:57:22;12.60;1.00
51619;DHT22;38518;53.164;5.430;2023-04-24T13:00:00;12.40;1.00
51619;DHT22;38518;53.164;5.430;2023-04-24T13:02:30;12.30;1.00
51619;DHT22;38518;53.164;5.430;2023-04-24T13:08:48;11.80;1.00
51619;DHT22;38518;53.164;5.430;2023-04-24T13:15:17;11.20;1.00
51619;DHT22;38518;53.164;5.430;2023-04-24T13:17:42;10.90;1.00
51619;DHT22;38518;53.164;5.430;2023-04-24T13:20:16;11.00;2.10
51619;DHT22;38518;53.164;5.430;2023-04-24T13:22:42;10.90;1.10
51619;DHT22;38518;53.164;5.430;2023-04-24T13:25:08;10.90;6.10
51619;DHT22;38518;53.164;5.430;2023-04-24T13:27:37;10.80;2.30
51619;DHT22;38518;53.164;5.430;2023-04-24T13:30:18;10.80;6.80
51619;DHT22;38518;53.164;5.430;2023-04-24T13:32:53;10.70;16.80
51619;DHT22;38518;53.164;5.430;2023-04-24T13:35:19;10.60;22.70
51619;DHT22;38518;53.164;5.430;2023-04-24T13:37:45;10.50;24.00
51619;DHT22;38518;53.164;5.430;2023-04-24T13:40:11;10.50;17.80
51619;DHT22;38518;53.164;5.430;2023-04-24T13:42:42;10.60;20.40
51619;DHT22;38518;53.164;5.430;2023-04-24T13:45:09;10.80;22.00
51619;DHT22;38518;53.164;5.430;2023-04-24T13:51:12;11.60;18.40
51619;DHT22;38518;53.164;5.430;2023-04-24T13:53:41;10.70;17.50
51619;DHT22;38518;53.164;5.430;2023-04-24T13:56:10;10.80;21.80
51619;DHT22;38518;53.164;5.430;2023-04-24T13:58:44;11.00;20.50
51619;DHT22;38518;53.164;5.430;2023-04-24T14:01:10;11.10;23.70
51619;DHT22;38518;53.164;5.430;2023-04-24T14:04:05;11.10;17.20
51619;DHT22;38518;53.164;5.430;2023-04-24T14:06:34;10.40;1.00
51619;DHT22;38518;53.164;5.430;2023-04-24T14:09:06;10.90;4.90
51619;DHT22;38518;53.164;5.430;2023-04-24T14:11:46;12.00;11.60
51619;DHT22;38518;53.164;5.430;2023-04-24T14:17:50;10.60;3.30
51619;DHT22;38518;53.164;5.430;2023-04-24T14:20:25;10.60;24.80
51619;DHT22;38518;53.164;5.430;2023-04-24T14:22:59;10.60;26.70
51619;DHT22;38518;53.164;5.430;2023-04-24T14:25:31;11.40;32.90
51619;DHT22;38518;53.164;5.430;2023-04-24T14:31:38;10.60;20.30
51619;DHT22;38518;53.164;5.430;2023-04-24T14:34:04;10.60;24.30
51619;DHT22;38518;53.164;5.430;2023-04-24T14:36:33;11.30;20.60
51619;DHT22;38518;53.164;5.430;2023-04-24T14:39:08;10.90;25.20
51619;DHT22;38518;53.164;5.430;2023-04-24T14:41:35;10.50;37.80
51619;DHT22;38518;53.164;5.430;2023-04-24T14:44:05;10.50;38.80
51619;DHT22;38518;53.164;5.430;2023-04-24T14:46:31;10.60;32.30
51619;DHT22;38518;53.164;5.430;2023-04-24T14:49:00;10.50;35.60
51619;DHT22;38518;53.164;5.430;2023-04-24T14:51:25;10.50;32.00
51619;DHT22;38518;53.164;5.430;2023-04-24T14:54:01;10.40;44.30
51619;DHT22;38518;53.164;5.430;2023-04-24T14:56:26;11.40;43.40
51619;DHT22;38518;53.164;5.430;2023-04-24T14:59:07;10.20;49.80
51619;DHT22;38518;53.164;5.430;2023-04-24T15:01:44;10.20;42.00
51619;DHT22;38518;53.164;5.430;2023-04-24T15:04:15;10.20;51.80
51619;DHT22;38518;53.164;5.430;2023-04-24T15:06:41;10.30;59.40
51619;DHT22;38518;53.164;5.430;2023-04-24T15:09:07;10.30;60.70
51619;DHT22;38518;53.164;5.430;2023-04-24T15:11:33;10.30;56.80
51619;DHT22;38518;53.164;5.430;2023-04-24T15:14:05;10.20;63.70
51619;DHT22;38518;53.164;5.430;2023-04-24T15:16:31;10.10;77.00
51619;DHT22;38518;53.164;5.430;2023-04-24T15:19:31;9.30;86.70
51619;DHT22;38518;53.164;5.430;2023-04-24T15:21:57;10.00;88.60
51619;DHT22;38518;53.164;5.430;2023-04-24T15:24:23;9.90;91.90
51619;DHT22;38518;53.164;5.430;2023-04-24T15:27:20;10.00;97.10
51619;DHT22;38518;53.164;5.430;2023-04-24T15:29:46;10.10;96.10
51619;DHT22;38518;53.164;5.430;2023-04-24T15:32:12;10.10;97.90
51619;DHT22;38518;53.164;5.430;2023-04-24T15:34:37;10.00;99.60
51619;DHT22;38518;53.164;5.430;2023-04-24T15:37:03;9.90;99.90
51619;DHT22;38518;53.164;5.430;2023-04-24T15:39:35;9.30;99.90
51619;DHT22;38518;53.164;5.430;2023-04-24T15:42:08;9.80;99.90
51619;DHT22;38518;53.164;5.430;2023-04-24T15:48:21;9.90;99.90
51619;DHT22;38518;53.164;5.430;2023-04-24T15:50:47;10.00;99.90
51619;DHT22;38518;53.164;5.430;2023-04-24T15:53:13;10.00;99.90
51619;DHT22;38518;53.164;5.430;2023-04-24T15:55:51;10.00;99.90
51619;DHT22;38518;53.164;5.430;2023-04-24T15:58:24;10.10;99.90
51619;DHT22;38518;53.164;5.430;2023-04-24T16:01:02;9.90;99.90
51619;DHT22;38518;53.164;5.430;2023-04-24T16:03:44;9.90;95.70
51619;DHT22;38518;53.164;5.430;2023-04-24T16:06:11;9.70;92.60
51619;DHT22;38518;53.164;5.430;2023-04-24T16:08:36;9.60;94.40
51619;DHT22;38518;53.164;5.430;2023-04-24T16:11:02;9.70;99.90
51619;DHT22;38518;53.164;5.430;2023-04-24T16:13:28;9.80;99.90
51619;DHT22;38518;53.164;5.430;2023-04-24T16:16:04;9.80;94.40
51619;DHT22;38518;53.164;5.430;2023-04-24T16:18:31;9.80;91.60
51619;DHT22;38518;53.164;5.430;2023-04-24T16:20:56;9.20;82.60
51619;DHT22;38518;53.164;5.430;2023-04-24T16:23:22;9.60;91.30
51619;DHT22;38518;53.164;5.430;2023-04-24T16:25:48;9.60;96.50
51619;DHT22;38518;53.164;5.430;2023-04-24T16:28:14;9.60;94.30
51619;DHT22;38518;53.164;5.430;2023-04-24T16:30:45;9.50;82.70
51619;DHT22;38518;53.164;5.430;2023-04-24T16:33:20;9.30;82.50
51619;DHT22;38518;53.164;5.430;2023-04-24T16:35:49;9.20;90.10
51619;DHT22;38518;53.164;5.430;2023-04-24T16:41:59;9.20;99.90
51619;DHT22;38518;53.164;5.430;2023-04-24T16:44:45;9.00;91.20
51619;DHT22;38518;53.164;5.430;2023-04-24T17:01:11;9.10;99.90
51619;DHT22;38518;53.164;5.430;2023-04-24T17:03:37;9.10;99.00
51619;DHT22;38518;53.164;5.430;2023-04-24T17:06:06;9.20;99.90
51619;DHT22;38518;53.164;5.430;2023-04-24T17:08:44;9.10;99.90